Aviation Digital Data Service (ADDS)

Output produced by METARs form (0909 UTC 23 July 2019)
found at http://www.aviationweather.gov/metar/data/
 
METAR text: EHGR 230855Z AUTO 13005KT 100V190 9999 FEW380 28/16 Q1021 BLU 12005KT CAVOK
Conditions at: EHGR (GILZE-RIJEN RNLA, NL) observed 0855 UTC 23 July 2019
Temperature: 28.0°C (82°F)
Dewpoint: 16.0°C (61°F) [RH = 48%]
Pressure (altimeter): 30.15 inches Hg (1021.0 mb)
Winds: from the SE (130 degrees) at 6 MPH (5 knots; 2.6 m/s)
Visibility: 6 or more miles (10+ km)
Ceiling: at least 12,000 feet AGL
Clouds: few clouds at 38000 feet AGL
Weather: no significant weather observed at this time

METAR text: EHGR 230825Z AUTO 16005KT 090V190 9999 NCD 28/16 Q1021 BLU 12005KT CAVOK
Conditions at: EHGR (GILZE-RIJEN RNLA, NL) observed 0825 UTC 23 July 2019
Temperature: 28.0°C (82°F)
Dewpoint: 16.0°C (61°F) [RH = 48%]
Pressure (altimeter): 30.15 inches Hg (1021.0 mb)
Winds: from the SSE (160 degrees) at 6 MPH (5 knots; 2.6 m/s)
Visibility: 6 or more miles (10+ km)
Ceiling: at least 12,000 feet AGL
Clouds: sky clear below 12,000 feet AGL
Weather: no significant weather observed at this time

METAR text: EHGR 230755Z AUTO 15004KT 110V180 9999 NCD 26/17 Q1021 BLU 12005KT CAVOK
Conditions at: EHGR (GILZE-RIJEN RNLA, NL) observed 0755 UTC 23 July 2019
Temperature: 26.0°C (79°F)
Dewpoint: 17.0°C (63°F) [RH = 58%]
Pressure (altimeter): 30.15 inches Hg (1021.0 mb)
Winds: from the SSE (150 degrees) at 5 MPH (4 knots; 2.1 m/s)
Visibility: 6 or more miles (10+ km)
Ceiling: at least 12,000 feet AGL
Clouds: sky clear below 12,000 feet AGL
Weather: no significant weather observed at this time

METAR text: EHGR 230725Z AUTO 12006KT 090V190 9999 SCT350 25/17 Q1021 BLU 12005KT CAVOK
Conditions at: EHGR (GILZE-RIJEN RNLA, NL) observed 0725 UTC 23 July 2019
Temperature: 25.0°C (77°F)
Dewpoint: 17.0°C (63°F) [RH = 61%]
Pressure (altimeter): 30.15 inches Hg (1021.0 mb)
Winds: from the ESE (120 degrees) at 7 MPH (6 knots; 3.1 m/s)
Visibility: 6 or more miles (10+ km)
Ceiling: at least 12,000 feet AGL
Clouds: scattered clouds at 35000 feet AGL
Weather: no significant weather observed at this time

METAR text: EHGR 230700Z AUTO 12004KT 090V160 9999 NCD 24/17 Q1021 BLU 12005KT CAVOK
Conditions at: EHGR (GILZE-RIJEN RNLA, NL) observed 0700 UTC 23 July 2019
Temperature: 24.0°C (75°F)
Dewpoint: 17.0°C (63°F) [RH = 65%]
Pressure (altimeter): 30.15 inches Hg (1021.0 mb)
Winds: from the ESE (120 degrees) at 5 MPH (4 knots; 2.1 m/s)
Visibility: 6 or more miles (10+ km)
Ceiling: at least 12,000 feet AGL
Clouds: sky clear below 12,000 feet AGL
Weather: no significant weather observed at this time

METAR text: EHGR 230655Z AUTO 11004KT 080V160 9999 SCT360 24/17 Q1021 BLU
Conditions at: EHGR (GILZE-RIJEN RNLA, NL) observed 0655 UTC 23 July 2019
Temperature: 24.0°C (75°F)
Dewpoint: 17.0°C (63°F) [RH = 65%]
Pressure (altimeter): 30.15 inches Hg (1021.0 mb)
Winds: from the ESE (110 degrees) at 5 MPH (4 knots; 2.1 m/s)
Visibility: 6 or more miles (10+ km)
Ceiling: at least 12,000 feet AGL
Clouds: scattered clouds at 36000 feet AGL
Weather: no significant weather observed at this time

METAR text: EHGR 230625Z AUTO 09004KT 080V150 9999 FEW370 23/16 Q1021 BLU
Conditions at: EHGR (GILZE-RIJEN RNLA, NL) observed 0625 UTC 23 July 2019
Temperature: 23.0°C (73°F)
Dewpoint: 16.0°C (61°F) [RH = 65%]
Pressure (altimeter): 30.15 inches Hg (1021.0 mb)
Winds: from the E (90 degrees) at 5 MPH (4 knots; 2.1 m/s)
Visibility: 6 or more miles (10+ km)
Ceiling: at least 12,000 feet AGL
Clouds: few clouds at 37000 feet AGL
Weather: no significant weather observed at this time

METAR text: EHGR 230555Z AUTO VRB02KT 9999 SCT360 21/17 Q1021 BLU
Conditions at: EHGR (GILZE-RIJEN RNLA, NL) observed 0555 UTC 23 July 2019
Temperature: 21.0°C (70°F)
Dewpoint: 17.0°C (63°F) [RH = 78%]
Pressure (altimeter): 30.15 inches Hg (1021.0 mb)
Winds: variable direction winds at 2 MPH (2 knots; 1.0 m/s)
Visibility: 6 or more miles (10+ km)
Ceiling: at least 12,000 feet AGL
Clouds: scattered clouds at 36000 feet AGL
Weather: no significant weather observed at this time

METAR text: EHGR 230525Z AUTO 04001KT 9999 NCD 19/16 Q1021 BLU
Conditions at: EHGR (GILZE-RIJEN RNLA, NL) observed 0525 UTC 23 July 2019
Temperature: 19.0°C (66°F)
Dewpoint: 16.0°C (61°F) [RH = 83%]
Pressure (altimeter): 30.15 inches Hg (1021.0 mb)
Winds: from the NE (40 degrees) at 1 MPH (1 knots; 0.5 m/s)
Visibility: 6 or more miles (10+ km)
Ceiling: at least 12,000 feet AGL
Clouds: sky clear below 12,000 feet AGL
Weather: no significant weather observed at this time

METAR text: EHGR 230455Z AUTO 11002KT 9999 NCD 17/15 Q1021 BLU
Conditions at: EHGR (GILZE-RIJEN RNLA, NL) observed 0455 UTC 23 July 2019
Temperature: 17.0°C (63°F)
Dewpoint: 15.0°C (59°F) [RH = 88%]
Pressure (altimeter): 30.15 inches Hg (1021.0 mb)
Winds: from the ESE (110 degrees) at 2 MPH (2 knots; 1.0 m/s)
Visibility: 6 or more miles (10+ km)
Ceiling: at least 12,000 feet AGL
Clouds: sky clear below 12,000 feet AGL
Weather: no significant weather observed at this time

METAR text: EHGR 230425Z AUTO 13002KT 9999 NCD 16/15 Q1021 BLU
Conditions at: EHGR (GILZE-RIJEN RNLA, NL) observed 0425 UTC 23 July 2019
Temperature: 16.0°C (61°F)
Dewpoint: 15.0°C (59°F) [RH = 94%]
Pressure (altimeter): 30.15 inches Hg (1021.0 mb)
Winds: from the SE (130 degrees) at 2 MPH (2 knots; 1.0 m/s)
Visibility: 6 or more miles (10+ km)
Ceiling: at least 12,000 feet AGL
Clouds: sky clear below 12,000 feet AGL
Weather: no significant weather observed at this time

METAR text: EHGR 230355Z AUTO 13001KT 9999 NCD 16/14 Q1022 BLU
Conditions at: EHGR (GILZE-RIJEN RNLA, NL) observed 0355 UTC 23 July 2019
Temperature: 16.0°C (61°F)
Dewpoint: 14.0°C (57°F) [RH = 88%]
Pressure (altimeter): 30.18 inches Hg (1022.0 mb)
Winds: from the SE (130 degrees) at 1 MPH (1 knots; 0.5 m/s)
Visibility: 6 or more miles (10+ km)
Ceiling: at least 12,000 feet AGL
Clouds: sky clear below 12,000 feet AGL
Weather: no significant weather observed at this time

METAR text: EHGR 230349Z AUTO 14001KT 9999 NCD 16/14 Q1022 BLU
Conditions at: EHGR (GILZE-RIJEN RNLA, NL) observed 0349 UTC 23 July 2019
Temperature: 16.0°C (61°F)
Dewpoint: 14.0°C (57°F) [RH = 88%]
Pressure (altimeter): 30.18 inches Hg (1022.0 mb)
Winds: from the SE (140 degrees) at 1 MPH (1 knots; 0.5 m/s)
Visibility: 6 or more miles (10+ km)
Ceiling: at least 12,000 feet AGL
Clouds: sky clear below 12,000 feet AGL
Weather: no significant weather observed at this time

METAR text: EHGR 230325Z AUTO 17001KT 9999 NCD 16/14 Q1022 BLU
Conditions at: EHGR (GILZE-RIJEN RNLA, NL) observed 0325 UTC 23 July 2019
Temperature: 16.0°C (61°F)
Dewpoint: 14.0°C (57°F) [RH = 88%]
Pressure (altimeter): 30.18 inches Hg (1022.0 mb)
Winds: from the S (170 degrees) at 1 MPH (1 knots; 0.5 m/s)
Visibility: 6 or more miles (10+ km)
Ceiling: at least 12,000 feet AGL
Clouds: sky clear below 12,000 feet AGL
Weather: no significant weather observed at this time

METAR text: EHGR 230255Z AUTO 17002KT 9999 NCD 16/14 Q1022 BLU
Conditions at: EHGR (GILZE-RIJEN RNLA, NL) observed 0255 UTC 23 July 2019
Temperature: 16.0°C (61°F)
Dewpoint: 14.0°C (57°F) [RH = 88%]
Pressure (altimeter): 30.18 inches Hg (1022.0 mb)
Winds: from the S (170 degrees) at 2 MPH (2 knots; 1.0 m/s)
Visibility: 6 or more miles (10+ km)
Ceiling: at least 12,000 feet AGL
Clouds: sky clear below 12,000 feet AGL
Weather: no significant weather observed at this time

METAR text: EHGR 230225Z AUTO 15002KT 9999 NCD 14/14 Q1022 BLU
Conditions at: EHGR (GILZE-RIJEN RNLA, NL) observed 0225 UTC 23 July 2019
Temperature: 14.0°C (57°F)
Dewpoint: 14.0°C (57°F) [RH = 100%]
Pressure (altimeter): 30.18 inches Hg (1022.0 mb)
Winds: from the SSE (150 degrees) at 2 MPH (2 knots; 1.0 m/s)
Visibility: 6 or more miles (10+ km)
Ceiling: at least 12,000 feet AGL
Clouds: sky clear below 12,000 feet AGL
Weather: no significant weather observed at this time

METAR text: EHGR 230213Z AUTO 15002KT 9999 NCD 15/14 Q1022 BLU
Conditions at: EHGR (GILZE-RIJEN RNLA, NL) observed 0213 UTC 23 July 2019
Temperature: 15.0°C (59°F)
Dewpoint: 14.0°C (57°F) [RH = 94%]
Pressure (altimeter): 30.18 inches Hg (1022.0 mb)
Winds: from the SSE (150 degrees) at 2 MPH (2 knots; 1.0 m/s)
Visibility: 6 or more miles (10+ km)
Ceiling: at least 12,000 feet AGL
Clouds: sky clear below 12,000 feet AGL
Weather: no significant weather observed at this time

METAR text: EHGR 230155Z AUTO 19002KT 9999 NCD 15/14 Q1022 BLU
Conditions at: EHGR (GILZE-RIJEN RNLA, NL) observed 0155 UTC 23 July 2019
Temperature: 15.0°C (59°F)
Dewpoint: 14.0°C (57°F) [RH = 94%]
Pressure (altimeter): 30.18 inches Hg (1022.0 mb)
Winds: from the S (190 degrees) at 2 MPH (2 knots; 1.0 m/s)
Visibility: 6 or more miles (10+ km)
Ceiling: at least 12,000 feet AGL
Clouds: sky clear below 12,000 feet AGL
Weather: no significant weather observed at this time

METAR text: EHGR 230125Z AUTO 19002KT 9999 NCD 16/15 Q1022 BLU
Conditions at: EHGR (GILZE-RIJEN RNLA, NL) observed 0125 UTC 23 July 2019
Temperature: 16.0°C (61°F)
Dewpoint: 15.0°C (59°F) [RH = 94%]
Pressure (altimeter): 30.18 inches Hg (1022.0 mb)
Winds: from the S (190 degrees) at 2 MPH (2 knots; 1.0 m/s)
Visibility: 6 or more miles (10+ km)
Ceiling: at least 12,000 feet AGL
Clouds: sky clear below 12,000 feet AGL
Weather: no significant weather observed at this time

METAR text: EHGR 230055Z AUTO 18001KT 9999 NCD 15/15 Q1022 BLU
Conditions at: EHGR (GILZE-RIJEN RNLA, NL) observed 0055 UTC 23 July 2019
Temperature: 15.0°C (59°F)
Dewpoint: 15.0°C (59°F) [RH = 100%]
Pressure (altimeter): 30.18 inches Hg (1022.0 mb)
Winds: from the S (180 degrees) at 1 MPH (1 knots; 0.5 m/s)
Visibility: 6 or more miles (10+ km)
Ceiling: at least 12,000 feet AGL
Clouds: sky clear below 12,000 feet AGL
Weather: no significant weather observed at this time

METAR text: EHGR 230025Z AUTO 18001KT 9999 NCD 16/15 Q1022 BLU
Conditions at: EHGR (GILZE-RIJEN RNLA, NL) observed 0025 UTC 23 July 2019
Temperature: 16.0°C (61°F)
Dewpoint: 15.0°C (59°F) [RH = 94%]
Pressure (altimeter): 30.18 inches Hg (1022.0 mb)
Winds: from the S (180 degrees) at 1 MPH (1 knots; 0.5 m/s)
Visibility: 6 or more miles (10+ km)
Ceiling: at least 12,000 feet AGL
Clouds: sky clear below 12,000 feet AGL
Weather: no significant weather observed at this time

METAR text: EHGR 222355Z AUTO 00000KT 9999 NCD 16/15 Q1022 BLU
Conditions at: EHGR (GILZE-RIJEN RNLA, NL) observed 2355 UTC 22 July 2019
Temperature: 16.0°C (61°F)
Dewpoint: 15.0°C (59°F) [RH = 94%]
Pressure (altimeter): 30.18 inches Hg (1022.0 mb)
Winds: calm
Visibility: 6 or more miles (10+ km)
Ceiling: at least 12,000 feet AGL
Clouds: sky clear below 12,000 feet AGL
Weather: no significant weather observed at this time

METAR text: EHGR 222325Z AUTO 18001KT 9999 FEW420 17/15 Q1022 BLU
Conditions at: EHGR (GILZE-RIJEN RNLA, NL) observed 2325 UTC 22 July 2019
Temperature: 17.0°C (63°F)
Dewpoint: 15.0°C (59°F) [RH = 88%]
Pressure (altimeter): 30.18 inches Hg (1022.0 mb)
Winds: from the S (180 degrees) at 1 MPH (1 knots; 0.5 m/s)
Visibility: 6 or more miles (10+ km)
Ceiling: at least 12,000 feet AGL
Clouds: few clouds at 42000 feet AGL
Weather: no significant weather observed at this time

METAR text: EHGR 222255Z AUTO 18001KT 9999 NCD 17/15 Q1022 BLU
Conditions at: EHGR (GILZE-RIJEN RNLA, NL) observed 2255 UTC 22 July 2019
Temperature: 17.0°C (63°F)
Dewpoint: 15.0°C (59°F) [RH = 88%]
Pressure (altimeter): 30.18 inches Hg (1022.0 mb)
Winds: from the S (180 degrees) at 1 MPH (1 knots; 0.5 m/s)
Visibility: 6 or more miles (10+ km)
Ceiling: at least 12,000 feet AGL
Clouds: sky clear below 12,000 feet AGL
Weather: no significant weather observed at this time

METAR text: EHGR 222225Z AUTO 21002KT 9999 NCD 17/15 Q1022 BLU
Conditions at: EHGR (GILZE-RIJEN RNLA, NL) observed 2225 UTC 22 July 2019
Temperature: 17.0°C (63°F)
Dewpoint: 15.0°C (59°F) [RH = 88%]
Pressure (altimeter): 30.18 inches Hg (1022.0 mb)
Winds: from the SSW (210 degrees) at 2 MPH (2 knots; 1.0 m/s)
Visibility: 6 or more miles (10+ km)
Ceiling: at least 12,000 feet AGL
Clouds: sky clear below 12,000 feet AGL
Weather: no significant weather observed at this time

METAR text: EHGR 222155Z AUTO 00000KT 9999 NCD 18/15 Q1022 BLU
Conditions at: EHGR (GILZE-RIJEN RNLA, NL) observed 2155 UTC 22 July 2019
Temperature: 18.0°C (64°F)
Dewpoint: 15.0°C (59°F) [RH = 83%]
Pressure (altimeter): 30.18 inches Hg (1022.0 mb)
Winds: calm
Visibility: 6 or more miles (10+ km)
Ceiling: at least 12,000 feet AGL
Clouds: sky clear below 12,000 feet AGL
Weather: no significant weather observed at this time

METAR text: EHGR 222125Z AUTO 30001KT 9999 FEW400 19/15 Q1022 BLU
Conditions at: EHGR (GILZE-RIJEN RNLA, NL) observed 2125 UTC 22 July 2019
Temperature: 19.0°C (66°F)
Dewpoint: 15.0°C (59°F) [RH = 78%]
Pressure (altimeter): 30.18 inches Hg (1022.0 mb)
Winds: from the WNW (300 degrees) at 1 MPH (1 knots; 0.5 m/s)
Visibility: 6 or more miles (10+ km)
Ceiling: at least 12,000 feet AGL
Clouds: few clouds at 40000 feet AGL
Weather: no significant weather observed at this time

METAR text: EHGR 222055Z AUTO 31002KT 9999 NCD 20/15 Q1022 BLU
Conditions at: EHGR (GILZE-RIJEN RNLA, NL) observed 2055 UTC 22 July 2019
Temperature: 20.0°C (68°F)
Dewpoint: 15.0°C (59°F) [RH = 73%]
Pressure (altimeter): 30.18 inches Hg (1022.0 mb)
Winds: from the NW (310 degrees) at 2 MPH (2 knots; 1.0 m/s)
Visibility: 6 or more miles (10+ km)
Ceiling: at least 12,000 feet AGL
Clouds: sky clear below 12,000 feet AGL
Weather: no significant weather observed at this time

METAR text: EHGR 222025Z AUTO 30004KT 220V340 9999 NCD 21/15 Q1022 BLU
Conditions at: EHGR (GILZE-RIJEN RNLA, NL) observed 2025 UTC 22 July 2019
Temperature: 21.0°C (70°F)
Dewpoint: 15.0°C (59°F) [RH = 69%]
Pressure (altimeter): 30.18 inches Hg (1022.0 mb)
Winds: from the WNW (300 degrees) at 5 MPH (4 knots; 2.1 m/s)
Visibility: 6 or more miles (10+ km)
Ceiling: at least 12,000 feet AGL
Clouds: sky clear below 12,000 feet AGL
Weather: no significant weather observed at this time

METAR text: EHGR 221955Z AUTO 31005KT 270V340 9999 BKN300 22/15 Q1022 BLU
Conditions at: EHGR (GILZE-RIJEN RNLA, NL) observed 1955 UTC 22 July 2019
Temperature: 22.0°C (72°F)
Dewpoint: 15.0°C (59°F) [RH = 65%]
Pressure (altimeter): 30.18 inches Hg (1022.0 mb)
Winds: from the NW (310 degrees) at 6 MPH (5 knots; 2.6 m/s)
Visibility: 6 or more miles (10+ km)
Ceiling: 30000 feet AGL
Clouds: broken clouds at 30000 feet AGL
Weather: no significant weather observed at this time

METAR text: EHGR 221925Z AUTO 33005KT 280V010 9999 OVC290 23/15 Q1022 BLU
Conditions at: EHGR (GILZE-RIJEN RNLA, NL) observed 1925 UTC 22 July 2019
Temperature: 23.0°C (73°F)
Dewpoint: 15.0°C (59°F) [RH = 61%]
Pressure (altimeter): 30.18 inches Hg (1022.0 mb)
Winds: from the NNW (330 degrees) at 6 MPH (5 knots; 2.6 m/s)
Visibility: 6 or more miles (10+ km)
Ceiling: 29000 feet AGL
Clouds: overcast cloud deck at 29000 feet AGL
Weather: no significant weather observed at this time

METAR text: EHGR 221855Z AUTO 32005KT 270V350 9999 FEW400 25/16 Q1022 BLU
Conditions at: EHGR (GILZE-RIJEN RNLA, NL) observed 1855 UTC 22 July 2019
Temperature: 25.0°C (77°F)
Dewpoint: 16.0°C (61°F) [RH = 57%]
Pressure (altimeter): 30.18 inches Hg (1022.0 mb)
Winds: from the NW (320 degrees) at 6 MPH (5 knots; 2.6 m/s)
Visibility: 6 or more miles (10+ km)
Ceiling: at least 12,000 feet AGL
Clouds: few clouds at 40000 feet AGL
Weather: no significant weather observed at this time

METAR text: EHGR 221825Z AUTO 30008KT 280V340 9999 NCD 26/17 Q1021 BLU
Conditions at: EHGR (GILZE-RIJEN RNLA, NL) observed 1825 UTC 22 July 2019
Temperature: 26.0°C (79°F)
Dewpoint: 17.0°C (63°F) [RH = 58%]
Pressure (altimeter): 30.15 inches Hg (1021.0 mb)
Winds: from the WNW (300 degrees) at 9 MPH (8 knots; 4.1 m/s)
Visibility: 6 or more miles (10+ km)
Ceiling: at least 12,000 feet AGL
Clouds: sky clear below 12,000 feet AGL
Weather: no significant weather observed at this time

METAR text: EHGR 221755Z AUTO 26005KT 200V300 9999 NCD 28/15 Q1021 BLU
Conditions at: EHGR (GILZE-RIJEN RNLA, NL) observed 1755 UTC 22 July 2019
Temperature: 28.0°C (82°F)
Dewpoint: 15.0°C (59°F) [RH = 45%]
Pressure (altimeter): 30.15 inches Hg (1021.0 mb)
Winds: from the W (260 degrees) at 6 MPH (5 knots; 2.6 m/s)
Visibility: 6 or more miles (10+ km)
Ceiling: at least 12,000 feet AGL
Clouds: sky clear below 12,000 feet AGL
Weather: no significant weather observed at this time

METAR text: EHGR 221725Z AUTO 26004KT 200V320 9999 BKN410 28/15 Q1021 BLU
Conditions at: EHGR (GILZE-RIJEN RNLA, NL) observed 1725 UTC 22 July 2019
Temperature: 28.0°C (82°F)
Dewpoint: 15.0°C (59°F) [RH = 45%]
Pressure (altimeter): 30.15 inches Hg (1021.0 mb)
Winds: from the W (260 degrees) at 5 MPH (4 knots; 2.1 m/s)
Visibility: 6 or more miles (10+ km)
Ceiling: 41000 feet AGL
Clouds: broken clouds at 41000 feet AGL
Weather: no significant weather observed at this time

METAR text: EHGR 221655Z AUTO 27006KT 230V310 9999 BKN420 28/15 Q1021 BLU
Conditions at: EHGR (GILZE-RIJEN RNLA, NL) observed 1655 UTC 22 July 2019
Temperature: 28.0°C (82°F)
Dewpoint: 15.0°C (59°F) [RH = 45%]
Pressure (altimeter): 30.15 inches Hg (1021.0 mb)
Winds: from the W (270 degrees) at 7 MPH (6 knots; 3.1 m/s)
Visibility: 6 or more miles (10+ km)
Ceiling: 42000 feet AGL
Clouds: broken clouds at 42000 feet AGL
Weather: no significant weather observed at this time

METAR text: EHGR 221625Z AUTO 28008KT 220V320 9999 OVC420 29/15 Q1022 BLU
Conditions at: EHGR (GILZE-RIJEN RNLA, NL) observed 1625 UTC 22 July 2019
Temperature: 29.0°C (84°F)
Dewpoint: 15.0°C (59°F) [RH = 43%]
Pressure (altimeter): 30.18 inches Hg (1022.0 mb)
Winds: from the W (280 degrees) at 9 MPH (8 knots; 4.1 m/s)
Visibility: 6 or more miles (10+ km)
Ceiling: 42000 feet AGL
Clouds: overcast cloud deck at 42000 feet AGL
Weather: no significant weather observed at this time

METAR text: EHGR 221555Z AUTO 28005KT 240V350 9999 FEW380 29/15 Q1022 BLU
Conditions at: EHGR (GILZE-RIJEN RNLA, NL) observed 1555 UTC 22 July 2019
Temperature: 29.0°C (84°F)
Dewpoint: 15.0°C (59°F) [RH = 43%]
Pressure (altimeter): 30.18 inches Hg (1022.0 mb)
Winds: from the W (280 degrees) at 6 MPH (5 knots; 2.6 m/s)
Visibility: 6 or more miles (10+ km)
Ceiling: at least 12,000 feet AGL
Clouds: few clouds at 38000 feet AGL
Weather: no significant weather observed at this time

METAR text: EHGR 221525Z AUTO 26008KT 210V330 9999 NCD 29/15 Q1022 BLU
Conditions at: EHGR (GILZE-RIJEN RNLA, NL) observed 1525 UTC 22 July 2019
Temperature: 29.0°C (84°F)
Dewpoint: 15.0°C (59°F) [RH = 43%]
Pressure (altimeter): 30.18 inches Hg (1022.0 mb)
Winds: from the W (260 degrees) at 9 MPH (8 knots; 4.1 m/s)
Visibility: 6 or more miles (10+ km)
Ceiling: at least 12,000 feet AGL
Clouds: sky clear below 12,000 feet AGL
Weather: no significant weather observed at this time

METAR text: EHGR 221511Z AUTO 25008KT 200V320 9999 NCD 29/14 Q1022 BLU
Conditions at: EHGR (GILZE-RIJEN RNLA, NL) observed 1511 UTC 22 July 2019
Temperature: 29.0°C (84°F)
Dewpoint: 14.0°C (57°F) [RH = 40%]
Pressure (altimeter): 30.18 inches Hg (1022.0 mb)
Winds: from the WSW (250 degrees) at 9 MPH (8 knots; 4.1 m/s)
Visibility: 6 or more miles (10+ km)
Ceiling: at least 12,000 feet AGL
Clouds: sky clear below 12,000 feet AGL
Weather: no significant weather observed at this time

METAR text: EHGR 221455Z AUTO 24007KT 190V300 9999 NCD 29/15 Q1022 BLU 25008G18KT CAVOK
Conditions at: EHGR (GILZE-RIJEN RNLA, NL) observed 1455 UTC 22 July 2019
Temperature: 29.0°C (84°F)
Dewpoint: 15.0°C (59°F) [RH = 43%]
Pressure (altimeter): 30.18 inches Hg (1022.0 mb)
Winds: from the WSW (240 degrees) at 8 MPH (7 knots; 3.6 m/s)
Visibility: 6 or more miles (10+ km)
Ceiling: at least 12,000 feet AGL
Clouds: sky clear below 12,000 feet AGL
Weather: no significant weather observed at this time

METAR text: EHGR 221425Z AUTO 25008KT 210V300 9999 SCT410 28/13 Q1022 BLU 25008G18KT CAVOK
Conditions at: EHGR (GILZE-RIJEN RNLA, NL) observed 1425 UTC 22 July 2019
Temperature: 28.0°C (82°F)
Dewpoint: 13.0°C (55°F) [RH = 40%]
Pressure (altimeter): 30.18 inches Hg (1022.0 mb)
Winds: from the WSW (250 degrees) at 9 MPH (8 knots; 4.1 m/s)
Visibility: 6 or more miles (10+ km)
Ceiling: at least 12,000 feet AGL
Clouds: scattered clouds at 41000 feet AGL
Weather: no significant weather observed at this time

METAR text: EHGR 221355Z AUTO 24008KT 190V300 9999 SCT400 28/14 Q1022 BLU 25008G18KT CAVOK
Conditions at: EHGR (GILZE-RIJEN RNLA, NL) observed 1355 UTC 22 July 2019
Temperature: 28.0°C (82°F)
Dewpoint: 14.0°C (57°F) [RH = 42%]
Pressure (altimeter): 30.18 inches Hg (1022.0 mb)
Winds: from the WSW (240 degrees) at 9 MPH (8 knots; 4.1 m/s)
Visibility: 6 or more miles (10+ km)
Ceiling: at least 12,000 feet AGL
Clouds: scattered clouds at 40000 feet AGL
Weather: no significant weather observed at this time

METAR text: EHGR 221325Z AUTO 26008KT 210V300 9999 FEW410 27/14 Q1022 BLU 25008G18KT CAVOK
Conditions at: EHGR (GILZE-RIJEN RNLA, NL) observed 1325 UTC 22 July 2019
Temperature: 27.0°C (81°F)
Dewpoint: 14.0°C (57°F) [RH = 45%]
Pressure (altimeter): 30.18 inches Hg (1022.0 mb)
Winds: from the W (260 degrees) at 9 MPH (8 knots; 4.1 m/s)
Visibility: 6 or more miles (10+ km)
Ceiling: at least 12,000 feet AGL
Clouds: few clouds at 41000 feet AGL
Weather: no significant weather observed at this time

METAR text: EHGR 221255Z AUTO 26009KT 190V340 9999 NCD 27/14 Q1023 BLU 25008G18KT CAVOK
Conditions at: EHGR (GILZE-RIJEN RNLA, NL) observed 1255 UTC 22 July 2019
Temperature: 27.0°C (81°F)
Dewpoint: 14.0°C (57°F) [RH = 45%]
Pressure (altimeter): 30.21 inches Hg (1023.0 mb)
Winds: from the W (260 degrees) at 10 MPH (9 knots; 4.6 m/s)
Visibility: 6 or more miles (10+ km)
Ceiling: at least 12,000 feet AGL
Clouds: sky clear below 12,000 feet AGL
Weather: no significant weather observed at this time

METAR text: EHGR 221225Z AUTO 27010KT 220V320 9999 NCD 27/14 Q1023 BLU 25008G18KT CAVOK
Conditions at: EHGR (GILZE-RIJEN RNLA, NL) observed 1225 UTC 22 July 2019
Temperature: 27.0°C (81°F)
Dewpoint: 14.0°C (57°F) [RH = 45%]
Pressure (altimeter): 30.21 inches Hg (1023.0 mb)
Winds: from the W (270 degrees) at 12 MPH (10 knots; 5.1 m/s)
Visibility: 6 or more miles (10+ km)
Ceiling: at least 12,000 feet AGL
Clouds: sky clear below 12,000 feet AGL
Weather: no significant weather observed at this time

METAR text: EHGR 221155Z AUTO 28011KT 210V310 9999 NCD 26/15 Q1023 BLU 25008G18KT CAVOK
Conditions at: EHGR (GILZE-RIJEN RNLA, NL) observed 1155 UTC 22 July 2019
Temperature: 26.0°C (79°F)
Dewpoint: 15.0°C (59°F) [RH = 51%]
Pressure (altimeter): 30.21 inches Hg (1023.0 mb)
Winds: from the W (280 degrees) at 13 MPH (11 knots; 5.7 m/s)
Visibility: 6 or more miles (10+ km)
Ceiling: at least 12,000 feet AGL
Clouds: sky clear below 12,000 feet AGL
Weather: no significant weather observed at this time

METAR text: EHGR 221125Z AUTO 25009KT 210V300 9999 BKN350 OVC440 26/14 Q1023 BLU 25008G18KT CAVOK
Conditions at: EHGR (GILZE-RIJEN RNLA, NL) observed 1125 UTC 22 July 2019
Temperature: 26.0°C (79°F)
Dewpoint: 14.0°C (57°F) [RH = 48%]
Pressure (altimeter): 30.21 inches Hg (1023.0 mb)
Winds: from the WSW (250 degrees) at 10 MPH (9 knots; 4.6 m/s)
Visibility: 6 or more miles (10+ km)
Ceiling: 35000 feet AGL
Clouds: broken clouds at 35000 feet AGL
overcast cloud deck at 44000 feet AGL
Weather: no significant weather observed at this time

METAR text: EHGR 221055Z AUTO 24009KT 200V280 9999 OVC440 26/15 Q1023 BLU 23008G18KT CAVOK
Conditions at: EHGR (GILZE-RIJEN RNLA, NL) observed 1055 UTC 22 July 2019
Temperature: 26.0°C (79°F)
Dewpoint: 15.0°C (59°F) [RH = 51%]
Pressure (altimeter): 30.21 inches Hg (1023.0 mb)
Winds: from the WSW (240 degrees) at 10 MPH (9 knots; 4.6 m/s)
Visibility: 6 or more miles (10+ km)
Ceiling: 44000 feet AGL
Clouds: overcast cloud deck at 44000 feet AGL
Weather: no significant weather observed at this time

METAR text: EHGR 221025Z AUTO 24009KT 200V290 9999 FEW350 25/14 Q1023 BLU 23008G18KT CAVOK
Conditions at: EHGR (GILZE-RIJEN RNLA, NL) observed 1025 UTC 22 July 2019
Temperature: 25.0°C (77°F)
Dewpoint: 14.0°C (57°F) [RH = 50%]
Pressure (altimeter): 30.21 inches Hg (1023.0 mb)
Winds: from the WSW (240 degrees) at 10 MPH (9 knots; 4.6 m/s)
Visibility: 6 or more miles (10+ km)
Ceiling: at least 12,000 feet AGL
Clouds: few clouds at 35000 feet AGL
Weather: no significant weather observed at this time

METAR text: EHGR 220955Z AUTO 24009KT 210V290 9999 FEW340 25/14 Q1023 BLU 23008G18KT CAVOK
Conditions at: EHGR (GILZE-RIJEN RNLA, NL) observed 0955 UTC 22 July 2019
Temperature: 25.0°C (77°F)
Dewpoint: 14.0°C (57°F) [RH = 50%]
Pressure (altimeter): 30.21 inches Hg (1023.0 mb)
Winds: from the WSW (240 degrees) at 10 MPH (9 knots; 4.6 m/s)
Visibility: 6 or more miles (10+ km)
Ceiling: at least 12,000 feet AGL
Clouds: few clouds at 34000 feet AGL
Weather: no significant weather observed at this time

METAR text: EHGR 220925Z AUTO 24010KT 210V290 9999 BKN340 24/13 Q1023 BLU 23008G18KT CAVOK
Conditions at: EHGR (GILZE-RIJEN RNLA, NL) observed 0925 UTC 22 July 2019
Temperature: 24.0°C (75°F)
Dewpoint: 13.0°C (55°F) [RH = 50%]
Pressure (altimeter): 30.21 inches Hg (1023.0 mb)
Winds: from the WSW (240 degrees) at 12 MPH (10 knots; 5.1 m/s)
Visibility: 6 or more miles (10+ km)
Ceiling: 34000 feet AGL
Clouds: broken clouds at 34000 feet AGL
Weather: no significant weather observed at this time

METAR text: EHGR 220855Z AUTO 24009KT 210V270 9999 SCT350 23/13 Q1023 BLU 23008G18KT CAVOK
Conditions at: EHGR (GILZE-RIJEN RNLA, NL) observed 0855 UTC 22 July 2019
Temperature: 23.0°C (73°F)
Dewpoint: 13.0°C (55°F) [RH = 53%]
Pressure (altimeter): 30.21 inches Hg (1023.0 mb)
Winds: from the WSW (240 degrees) at 10 MPH (9 knots; 4.6 m/s)
Visibility: 6 or more miles (10+ km)
Ceiling: at least 12,000 feet AGL
Clouds: scattered clouds at 35000 feet AGL
Weather: no significant weather observed at this time

METAR text: EHGR 220825Z AUTO 24008KT 210V300 9999 BKN320 OVC410 23/13 Q1023 BLU 23008G18KT CAVOK
Conditions at: EHGR (GILZE-RIJEN RNLA, NL) observed 0825 UTC 22 July 2019
Temperature: 23.0°C (73°F)
Dewpoint: 13.0°C (55°F) [RH = 53%]
Pressure (altimeter): 30.21 inches Hg (1023.0 mb)
Winds: from the WSW (240 degrees) at 9 MPH (8 knots; 4.1 m/s)
Visibility: 6 or more miles (10+ km)
Ceiling: 32000 feet AGL
Clouds: broken clouds at 32000 feet AGL
overcast cloud deck at 41000 feet AGL
Weather: no significant weather observed at this time

METAR text: EHGR 220757Z AUTO 24009KT 200V290 9999 FEW340 21/13 Q1023 BLU 23008G18KT CAVOK
Conditions at: EHGR (GILZE-RIJEN RNLA, NL) observed 0757 UTC 22 July 2019
Temperature: 21.0°C (70°F)
Dewpoint: 13.0°C (55°F) [RH = 60%]
Pressure (altimeter): 30.21 inches Hg (1023.0 mb)
Winds: from the WSW (240 degrees) at 10 MPH (9 knots; 4.6 m/s)
Visibility: 6 or more miles (10+ km)
Ceiling: at least 12,000 feet AGL
Clouds: few clouds at 34000 feet AGL
Weather: no significant weather observed at this time

METAR text: EHGR 220755Z AUTO 24008KT 200V280 9999 FEW340 21/13 Q1023 BLU 23006KT CAVOK
Conditions at: EHGR (GILZE-RIJEN RNLA, NL) observed 0755 UTC 22 July 2019
Temperature: 21.0°C (70°F)
Dewpoint: 13.0°C (55°F) [RH = 60%]
Pressure (altimeter): 30.21 inches Hg (1023.0 mb)
Winds: from the WSW (240 degrees) at 9 MPH (8 knots; 4.1 m/s)
Visibility: 6 or more miles (10+ km)
Ceiling: at least 12,000 feet AGL
Clouds: few clouds at 34000 feet AGL
Weather: no significant weather observed at this time

METAR text: EHGR 220725Z AUTO 22008KT 200V290 9999 BKN180 BKN390 20/13 Q1023 BLU 23006KT CAVOK
Conditions at: EHGR (GILZE-RIJEN RNLA, NL) observed 0725 UTC 22 July 2019
Temperature: 20.0°C (68°F)
Dewpoint: 13.0°C (55°F) [RH = 64%]
Pressure (altimeter): 30.21 inches Hg (1023.0 mb)
Winds: from the SW (220 degrees) at 9 MPH (8 knots; 4.1 m/s)
Visibility: 6 or more miles (10+ km)
Ceiling: 18000 feet AGL
Clouds: broken clouds at 18000 feet AGL
broken clouds at 39000 feet AGL
Weather: no significant weather observed at this time

METAR text: EHGR 220655Z AUTO 22006KT 180V270 9999 BKN160 OVC370 19/13 Q1023 BLU 23006KT CAVOK
Conditions at: EHGR (GILZE-RIJEN RNLA, NL) observed 0655 UTC 22 July 2019
Temperature: 19.0°C (66°F)
Dewpoint: 13.0°C (55°F) [RH = 68%]
Pressure (altimeter): 30.21 inches Hg (1023.0 mb)
Winds: from the SW (220 degrees) at 7 MPH (6 knots; 3.1 m/s)
Visibility: 6 or more miles (10+ km)
Ceiling: 16000 feet AGL
Clouds: broken clouds at 16000 feet AGL
overcast cloud deck at 37000 feet AGL
Weather: no significant weather observed at this time

METAR text: EHGR 220625Z AUTO 22005KT 190V270 9999 OVC170 18/14 Q1022 BLU 23006KT CAVOK
Conditions at: EHGR (GILZE-RIJEN RNLA, NL) observed 0625 UTC 22 July 2019
Temperature: 18.0°C (64°F)
Dewpoint: 14.0°C (57°F) [RH = 77%]
Pressure (altimeter): 30.18 inches Hg (1022.0 mb)
Winds: from the SW (220 degrees) at 6 MPH (5 knots; 2.6 m/s)
Visibility: 6 or more miles (10+ km)
Ceiling: 17000 feet AGL
Clouds: overcast cloud deck at 17000 feet AGL
Weather: no significant weather observed at this time

METAR text: EHGR 220555Z AUTO 22004KT 190V250 9999 OVC220 17/14 Q1022 BLU 23006KT CAVOK
Conditions at: EHGR (GILZE-RIJEN RNLA, NL) observed 0555 UTC 22 July 2019
Temperature: 17.0°C (63°F)
Dewpoint: 14.0°C (57°F) [RH = 82%]
Pressure (altimeter): 30.18 inches Hg (1022.0 mb)
Winds: from the SW (220 degrees) at 5 MPH (4 knots; 2.1 m/s)
Visibility: 6 or more miles (10+ km)
Ceiling: 22000 feet AGL
Clouds: overcast cloud deck at 22000 feet AGL
Weather: no significant weather observed at this time

METAR text: EHGR 220533Z AUTO 22004KT 200V260 9999 OVC160 16/14 Q1022 BLU 23006KT CAVOK
Conditions at: EHGR (GILZE-RIJEN RNLA, NL) observed 0533 UTC 22 July 2019
Temperature: 16.0°C (61°F)
Dewpoint: 14.0°C (57°F) [RH = 88%]
Pressure (altimeter): 30.18 inches Hg (1022.0 mb)
Winds: from the SW (220 degrees) at 5 MPH (4 knots; 2.1 m/s)
Visibility: 6 or more miles (10+ km)
Ceiling: 16000 feet AGL
Clouds: overcast cloud deck at 16000 feet AGL
Weather: no significant weather observed at this time

METAR text: EHGR 220525Z AUTO 22004KT 200V270 9999 OVC160 16/14 Q1022 BLU
Conditions at: EHGR (GILZE-RIJEN RNLA, NL) observed 0525 UTC 22 July 2019
Temperature: 16.0°C (61°F)
Dewpoint: 14.0°C (57°F) [RH = 88%]
Pressure (altimeter): 30.18 inches Hg (1022.0 mb)
Winds: from the SW (220 degrees) at 5 MPH (4 knots; 2.1 m/s)
Visibility: 6 or more miles (10+ km)
Ceiling: 16000 feet AGL
Clouds: overcast cloud deck at 16000 feet AGL
Weather: no significant weather observed at this time

METAR text: EHGR 220455Z AUTO 22003KT 190V250 9999 OVC150 15/13 Q1022 BLU
Conditions at: EHGR (GILZE-RIJEN RNLA, NL) observed 0455 UTC 22 July 2019
Temperature: 15.0°C (59°F)
Dewpoint: 13.0°C (55°F) [RH = 88%]
Pressure (altimeter): 30.18 inches Hg (1022.0 mb)
Winds: from the SW (220 degrees) at 3 MPH (3 knots; 1.5 m/s)
Visibility: 6 or more miles (10+ km)
Ceiling: 15000 feet AGL
Clouds: overcast cloud deck at 15000 feet AGL
Weather: no significant weather observed at this time

METAR text: EHGR 220428Z AUTO 23003KT 9999 OVC150 15/13 Q1022 BLU
Conditions at: EHGR (GILZE-RIJEN RNLA, NL) observed 0428 UTC 22 July 2019
Temperature: 15.0°C (59°F)
Dewpoint: 13.0°C (55°F) [RH = 88%]
Pressure (altimeter): 30.18 inches Hg (1022.0 mb)
Winds: from the SW (230 degrees) at 3 MPH (3 knots; 1.5 m/s)
Visibility: 6 or more miles (10+ km)
Ceiling: 15000 feet AGL
Clouds: overcast cloud deck at 15000 feet AGL
Weather: no significant weather observed at this time

METAR text: EHGR 220425Z AUTO 22003KT 200V260 9999 OVC150 14/13 Q1022 BLU
Conditions at: EHGR (GILZE-RIJEN RNLA, NL) observed 0425 UTC 22 July 2019
Temperature: 14.0°C (57°F)
Dewpoint: 13.0°C (55°F) [RH = 94%]
Pressure (altimeter): 30.18 inches Hg (1022.0 mb)
Winds: from the SW (220 degrees) at 3 MPH (3 knots; 1.5 m/s)
Visibility: 6 or more miles (10+ km)
Ceiling: 15000 feet AGL
Clouds: overcast cloud deck at 15000 feet AGL
Weather: no significant weather observed at this time

METAR text: EHGR 220355Z AUTO 20002KT 9999 BKN170 13/12 Q1022 BLU
Conditions at: EHGR (GILZE-RIJEN RNLA, NL) observed 0355 UTC 22 July 2019
Temperature: 13.0°C (55°F)
Dewpoint: 12.0°C (54°F) [RH = 94%]
Pressure (altimeter): 30.18 inches Hg (1022.0 mb)
Winds: from the SSW (200 degrees) at 2 MPH (2 knots; 1.0 m/s)
Visibility: 6 or more miles (10+ km)
Ceiling: 17000 feet AGL
Clouds: broken clouds at 17000 feet AGL
Weather: no significant weather observed at this time

METAR text: EHGR 220328Z AUTO 20002KT 9999 OVC160 14/13 Q1022 BLU
Conditions at: EHGR (GILZE-RIJEN RNLA, NL) observed 0328 UTC 22 July 2019
Temperature: 14.0°C (57°F)
Dewpoint: 13.0°C (55°F) [RH = 94%]
Pressure (altimeter): 30.18 inches Hg (1022.0 mb)
Winds: from the SSW (200 degrees) at 2 MPH (2 knots; 1.0 m/s)
Visibility: 6 or more miles (10+ km)
Ceiling: 16000 feet AGL
Clouds: overcast cloud deck at 16000 feet AGL
Weather: no significant weather observed at this time

METAR text: EHGR 220325Z AUTO 20003KT 9999 OVC160 13/12 Q1022 BLU
Conditions at: EHGR (GILZE-RIJEN RNLA, NL) observed 0325 UTC 22 July 2019
Temperature: 13.0°C (55°F)
Dewpoint: 12.0°C (54°F) [RH = 94%]
Pressure (altimeter): 30.18 inches Hg (1022.0 mb)
Winds: from the SSW (200 degrees) at 3 MPH (3 knots; 1.5 m/s)
Visibility: 6 or more miles (10+ km)
Ceiling: 16000 feet AGL
Clouds: overcast cloud deck at 16000 feet AGL
Weather: no significant weather observed at this time

METAR text: EHGR 220255Z AUTO 19002KT 9999 OVC170 14/13 Q1022 BLU
Conditions at: EHGR (GILZE-RIJEN RNLA, NL) observed 0255 UTC 22 July 2019
Temperature: 14.0°C (57°F)
Dewpoint: 13.0°C (55°F) [RH = 94%]
Pressure (altimeter): 30.18 inches Hg (1022.0 mb)
Winds: from the S (190 degrees) at 2 MPH (2 knots; 1.0 m/s)
Visibility: 6 or more miles (10+ km)
Ceiling: 17000 feet AGL
Clouds: overcast cloud deck at 17000 feet AGL
Weather: no significant weather observed at this time

METAR text: EHGR 220225Z AUTO VRB01KT 9999 OVC150 15/13 Q1022 BLU
Conditions at: EHGR (GILZE-RIJEN RNLA, NL) observed 0225 UTC 22 July 2019
Temperature: 15.0°C (59°F)
Dewpoint: 13.0°C (55°F) [RH = 88%]
Pressure (altimeter): 30.18 inches Hg (1022.0 mb)
Winds: variable direction winds at 1 MPH (1 knots; 0.5 m/s)
Visibility: 6 or more miles (10+ km)
Ceiling: 15000 feet AGL
Clouds: overcast cloud deck at 15000 feet AGL
Weather: no significant weather observed at this time

METAR text: EHGR 220155Z AUTO VRB01KT 9999 OVC150 15/13 Q1023 BLU
Conditions at: EHGR (GILZE-RIJEN RNLA, NL) observed 0155 UTC 22 July 2019
Temperature: 15.0°C (59°F)
Dewpoint: 13.0°C (55°F) [RH = 88%]
Pressure (altimeter): 30.21 inches Hg (1023.0 mb)
Winds: variable direction winds at 1 MPH (1 knots; 0.5 m/s)
Visibility: 6 or more miles (10+ km)
Ceiling: 15000 feet AGL
Clouds: overcast cloud deck at 15000 feet AGL
Weather: no significant weather observed at this time

METAR text: EHGR 220125Z AUTO 29001KT 9999 OVC160 15/13 Q1023 BLU
Conditions at: EHGR (GILZE-RIJEN RNLA, NL) observed 0125 UTC 22 July 2019
Temperature: 15.0°C (59°F)
Dewpoint: 13.0°C (55°F) [RH = 88%]
Pressure (altimeter): 30.21 inches Hg (1023.0 mb)
Winds: from the WNW (290 degrees) at 1 MPH (1 knots; 0.5 m/s)
Visibility: 6 or more miles (10+ km)
Ceiling: 16000 feet AGL
Clouds: overcast cloud deck at 16000 feet AGL
Weather: no significant weather observed at this time

METAR text: EHGR 220055Z AUTO 29001KT 9999 OVC150 15/14 Q1023 BLU
Conditions at: EHGR (GILZE-RIJEN RNLA, NL) observed 0055 UTC 22 July 2019
Temperature: 15.0°C (59°F)
Dewpoint: 14.0°C (57°F) [RH = 94%]
Pressure (altimeter): 30.21 inches Hg (1023.0 mb)
Winds: from the WNW (290 degrees) at 1 MPH (1 knots; 0.5 m/s)
Visibility: 6 or more miles (10+ km)
Ceiling: 15000 feet AGL
Clouds: overcast cloud deck at 15000 feet AGL
Weather: no significant weather observed at this time

METAR text: EHGR 220025Z AUTO 29001KT 9999 OVC160 16/14 Q1023 BLU
Conditions at: EHGR (GILZE-RIJEN RNLA, NL) observed 0025 UTC 22 July 2019
Temperature: 16.0°C (61°F)
Dewpoint: 14.0°C (57°F) [RH = 88%]
Pressure (altimeter): 30.21 inches Hg (1023.0 mb)
Winds: from the WNW (290 degrees) at 1 MPH (1 knots; 0.5 m/s)
Visibility: 6 or more miles (10+ km)
Ceiling: 16000 feet AGL
Clouds: overcast cloud deck at 16000 feet AGL
Weather: no significant weather observed at this time

METAR text: EHGR 212355Z AUTO 00000KT 9999 OVC170 15/14 Q1023 BLU
Conditions at: EHGR (GILZE-RIJEN RNLA, NL) observed 2355 UTC 21 July 2019
Temperature: 15.0°C (59°F)
Dewpoint: 14.0°C (57°F) [RH = 94%]
Pressure (altimeter): 30.21 inches Hg (1023.0 mb)
Winds: calm
Visibility: 6 or more miles (10+ km)
Ceiling: 17000 feet AGL
Clouds: overcast cloud deck at 17000 feet AGL
Weather: no significant weather observed at this time

METAR text: EHGR 212325Z AUTO 29001KT 9999 OVC200 15/13 Q1023 BLU
Conditions at: EHGR (GILZE-RIJEN RNLA, NL) observed 2325 UTC 21 July 2019
Temperature: 15.0°C (59°F)
Dewpoint: 13.0°C (55°F) [RH = 88%]
Pressure (altimeter): 30.21 inches Hg (1023.0 mb)
Winds: from the WNW (290 degrees) at 1 MPH (1 knots; 0.5 m/s)
Visibility: 6 or more miles (10+ km)
Ceiling: 20000 feet AGL
Clouds: overcast cloud deck at 20000 feet AGL
Weather: no significant weather observed at this time

METAR text: EHGR 212255Z AUTO 29001KT 9999 OVC210 15/13 Q1023 BLU
Conditions at: EHGR (GILZE-RIJEN RNLA, NL) observed 2255 UTC 21 July 2019
Temperature: 15.0°C (59°F)
Dewpoint: 13.0°C (55°F) [RH = 88%]
Pressure (altimeter): 30.21 inches Hg (1023.0 mb)
Winds: from the WNW (290 degrees) at 1 MPH (1 knots; 0.5 m/s)
Visibility: 6 or more miles (10+ km)
Ceiling: 21000 feet AGL
Clouds: overcast cloud deck at 21000 feet AGL
Weather: no significant weather observed at this time

METAR text: EHGR 212225Z AUTO 29002KT 9999 OVC260 15/13 Q1023 BLU
Conditions at: EHGR (GILZE-RIJEN RNLA, NL) observed 2225 UTC 21 July 2019
Temperature: 15.0°C (59°F)
Dewpoint: 13.0°C (55°F) [RH = 88%]
Pressure (altimeter): 30.21 inches Hg (1023.0 mb)
Winds: from the WNW (290 degrees) at 2 MPH (2 knots; 1.0 m/s)
Visibility: 6 or more miles (10+ km)
Ceiling: 26000 feet AGL
Clouds: overcast cloud deck at 26000 feet AGL
Weather: no significant weather observed at this time

METAR text: EHGR 212155Z AUTO 29002KT 9999 OVC290 15/12 Q1023 BLU
Conditions at: EHGR (GILZE-RIJEN RNLA, NL) observed 2155 UTC 21 July 2019
Temperature: 15.0°C (59°F)
Dewpoint: 12.0°C (54°F) [RH = 82%]
Pressure (altimeter): 30.21 inches Hg (1023.0 mb)
Winds: from the WNW (290 degrees) at 2 MPH (2 knots; 1.0 m/s)
Visibility: 6 or more miles (10+ km)
Ceiling: 29000 feet AGL
Clouds: overcast cloud deck at 29000 feet AGL
Weather: no significant weather observed at this time

METAR text: EHGR 212125Z AUTO 29001KT 9999 BKN280 OVC330 16/13 Q1023 BLU
Conditions at: EHGR (GILZE-RIJEN RNLA, NL) observed 2125 UTC 21 July 2019
Temperature: 16.0°C (61°F)
Dewpoint: 13.0°C (55°F) [RH = 82%]
Pressure (altimeter): 30.21 inches Hg (1023.0 mb)
Winds: from the WNW (290 degrees) at 1 MPH (1 knots; 0.5 m/s)
Visibility: 6 or more miles (10+ km)
Ceiling: 28000 feet AGL
Clouds: broken clouds at 28000 feet AGL
overcast cloud deck at 33000 feet AGL
Weather: no significant weather observed at this time

Forecast for: EHGR (GILZE-RIJEN RNLA, NL)
Text: TAF EHGR 230811Z 2309/2321 14005KT CAVOK
Forecast period: 0900 to 1800 UTC 23 July 2019
Forecast type: FROM: standard forecast or significant change
Winds: from the SE (140 degrees) at 6 MPH (5 knots; 2.6 m/s)
Visibility: 6 or more miles 10+ km)
Ceiling: unknown
Clouds: missing
Weather: NSW  (no significant weather)
Text: BECMG 2318/2320 06004KT
Forecast period: 1800 to 2100 UTC 23 July 2019
Forecast type: BECOMING: Conditions expected to become as follows by 2000 UTC 23 July 2019
Winds: from the ENE (60 degrees) at 5 MPH (4 knots; 2.1 m/s)
Visibility: 6 or more miles 10+ km)
Ceiling: unknown
Clouds: missing
Weather: NSW  (no significant weather)